首页
METAR-TAF:

METAR-TAF

机场 :

Entrammes

拉瓦勒, 法国

纬度: 48-01-56N, 经度: 000-44-34W, 海拔: 101米

当前天气观测

该预报发布于12分钟前的15:00 UTC
风速4节,风向,在西之间变化
温度 32°C
湿度 32%
气压 1021 hPa
能见度10公里或以上
1500米以下无云,无积雨云

METAR: LFOV 221500Z AUTO 18004KT 090V260 CAVOK 32/13 Q1021

时间: 17:12 (15:12 UTC)


TAF: 丢失

超过4000个机场的气象观测和天气预报(METAR&TAF报告)。

可查询的气象台以黄色和红色小点在地图上表示。

将鼠标移到小点上方,可查看气象台名称。

然后点击查看天气观测和预报。

如需切换地图:点击带黑十字的绿色按钮放大地图;点击带横线的绿色按钮缩小地图;或者点击绿色箭头查看邻近地区的地图。


METAR-TAF: